Hovedside
METAR-TAF:

METAR-TAF

Lufthavner :

Tokyo-Haneda, Japan

breddegrad: 35-33N, lengdegrad: 139-47E, høyde over havet: 5 m

Gjeldene værobservasjon

Denne rapporten ble laget for 32 minutter siden, klokken 19:00 UTC
Vind 10 kt fra Nord-nordøst
Temperatur 6°C
Luftfuktighet 65%
Trykk 1017 hPa
Sikt 10 km eller mer
Få skyer i en høyde av 2500 ft
Brutte skyer i en høyde av 6000 ft
lett regn

METAR: RJTT 191900Z 02010KT 9999 -RA FEW025 BKN060 06/M00 Q1017 NOSIG RMK 1CU025 7SC060 A3004

Tid: 04:32 (19:32 UTC)

Varsel

Denne rapporten ble laget for 2 timer og 22 minutter siden, klokken 17:10 UTC
Varsel gyldig fra 19. klokken 18 UTC til 21. klokken 00 UTC
Vind 12 kt fra Nord
Sikt 10 km eller mer
Få skyer i en høyde av 1000 ft
Brutte skyer i en høyde av 2000 ft

TAF: RJTT 191710Z 1918/2100 35012KT 9999 FEW010 BKN020

Værobservasjoner og værvarsel for over 4000 flyplasser (METAR- og TAF-rapporter).

Tilgjengelige stasjoner er representert av de røde og gule prikkene på kartet.

Hold musepekeren over prikken for å se navnet på stasjonen.

Klikk så for å se værobservasjoner og -varsler.

For å forandre kartet kan du klikke på den grønne knappen med svart kryss for å zoome inn, på den grønne knappen med strek for å zoome ut, eller på de grønne pilene for å se tilstøtende kart.


METAR-TAF: